Southampton, NY

8:13 AM EST on January 26, 2015 (GMT -0500)
SoMAS Southampton | Change Station
CLOSE
Current Station
Personal Weather Station
Location: Shinnecock Hills, NY
Elevation: 13 ft
Nearby Weather Stations

Elev 13 ft 40.88 °N, 72.44 °W | Updated 2 minutes ago

Overcast
Overcast
26.0 °F
Feels Like 15 °F
N
12.0
Wind Variable Wind from ENE
Gusts 20.0 mph

Today
High -- | Low -- °F
--% Chance of Precip.
Yesterday
High -- | Low -- °F
Precip. -- in
7:05 AM 4:59 PM
Waxing Crescent, 43% visible
Pressure 30.04 in
Visibility 5.0 miles
Clouds Overcast 3800 ft
Windchill 15 °F
Dew Point 19 °F
Humidity 74%
Rainfall 0.00 in
Snow Depth Not available.
UV 0.0 out of 12
Pollen .10 out of 12
Air Quality Not available.
Flu Activity Not available.
METAR KFOK 261253Z 05015G21KT 5SM -SN OVC038 M03/M09 A3003 RMK AO2 UPB39E48SNB50 SLP170 P0000 T10331094

More Conditions Fewer Conditions

Pressure 30.04 in
Visibility 5.0 miles
Clouds Overcast 3800 ft
Windchill 15 °F
Dew Point 19 °F
Humidity 74%
Rainfall 0.00 in
Snow Depth Not available.
UV 0.0 out of 12
Pollen .10 out of 12
Air Quality Not available.
Flu Activity Not available.
METAR KFOK 261253Z 05015G21KT 5SM -SN OVC038 M03/M09 A3003 RMK AO2 UPB39E48SNB50 SLP170 P0000 T10331094

More Conditions Fewer Conditions

10-Day Weather Forecast

Almanac

Astronomy

Jan. 26, 2015 Rise Set
Actual Time
Civil Twilight
Nautical Twilight
Astronomical Twilight
Moon
Length of Visible Light
Length of Day
Tomorrow will be .
, % of the Moon is Illuminated

Today's Extremes

State Highs State Lows

Community

WunderPhotos

Upload Photos

1,790,192 photos uploaded!

WunderBlogs® & News

Nearby

Air Quality

  Air Quality AQ Index Pollutant
Not available.

Snow Depth

Station Depth Elevation

Earthquake Activity

City Distance Mag. Time & Date
Minimum magnitude displayed is 2.5.

Coastal Water Temperatures

Place Temperature

Nearby Weather Stations